createdAt,value
2022-07-26T00:01:52.629Z,15.50
2022-07-26T00:04:38.148Z,13.63
2022-07-26T00:07:23.684Z,19.45
2022-07-26T00:10:09.205Z,15.38
2022-07-26T00:12:54.295Z,11.23
2022-07-26T00:15:39.808Z,11.52
2022-07-26T00:18:25.474Z,10.52
2022-07-26T00:21:11.670Z,12.82
2022-07-26T00:23:57.496Z,13.10
2022-07-26T00:26:43.107Z,10.68
2022-07-26T00:29:28.042Z,12.80
2022-07-26T00:32:13.363Z,11.52
2022-07-26T00:34:58.878Z,10.95
2022-07-26T00:37:44.292Z,15.50
2022-07-26T00:40:29.680Z,12.90
2022-07-26T00:43:15.107Z,12.48
2022-07-26T00:46:00.879Z,11.50
2022-07-26T00:48:46.028Z,17.90
2022-07-26T00:51:31.359Z,20.08
2022-07-26T00:54:17.101Z,14.38
2022-07-26T00:57:03.290Z,16.63
2022-07-26T00:59:48.839Z,11.30
2022-07-26T01:02:34.402Z,12.73
2022-07-26T01:05:20.130Z,15.63
2022-07-26T01:08:05.170Z,11.27
2022-07-26T01:10:51.269Z,15.93
2022-07-26T01:13:36.692Z,12.85
2022-07-26T01:16:22.729Z,15.10
2022-07-26T01:19:08.185Z,13.05
2022-07-26T01:21:53.804Z,15.70
2022-07-26T01:24:39.019Z,14.35
2022-07-26T01:27:24.293Z,16.10
2022-07-26T01:30:11.628Z,15.15
2022-07-26T01:32:57.099Z,15.07
2022-07-26T01:35:42.404Z,19.55
2022-07-26T01:38:27.999Z,10.50
2022-07-26T01:41:13.186Z,13.05
2022-07-26T01:43:58.159Z,15.32
2022-07-26T01:46:43.622Z,16.73
2022-07-26T01:49:28.594Z,15.45
2022-07-26T01:52:13.867Z,14.75
2022-07-26T01:54:59.273Z,13.13
2022-07-26T01:57:45.985Z,13.02
2022-07-26T02:00:31.507Z,11.93
2022-07-26T02:03:16.834Z,9.55
2022-07-26T02:06:02.971Z,8.18
2022-07-26T02:08:48.581Z,12.50
2022-07-26T02:11:34.493Z,13.73
2022-07-26T02:14:26.049Z,10.10
2022-07-26T02:17:13.239Z,10.70
2022-07-26T02:19:58.573Z,11.85
2022-07-26T02:22:43.736Z,12.60
2022-07-26T02:25:29.374Z,13.50
2022-07-26T02:28:15.502Z,9.40
2022-07-26T02:31:00.708Z,10.63
2022-07-26T02:33:45.986Z,8.63
2022-07-26T02:36:30.770Z,13.52
2022-07-26T02:39:16.303Z,11.30
2022-07-26T02:42:03.396Z,8.95
2022-07-26T02:44:48.419Z,9.15
2022-07-26T02:47:33.972Z,10.75
2022-07-26T02:50:20.437Z,16.25
2022-07-26T02:53:05.537Z,12.20
2022-07-26T02:55:50.264Z,13.85
2022-07-26T02:58:36.276Z,11.75
2022-07-26T03:01:21.430Z,9.52
2022-07-26T03:04:06.654Z,14.50
2022-07-26T03:06:51.849Z,13.95
2022-07-26T03:09:36.661Z,12.25
2022-07-26T03:12:21.656Z,10.82
2022-07-26T03:15:06.812Z,15.68
2022-07-26T03:17:51.904Z,11.23
2022-07-26T03:20:37.393Z,11.30
2022-07-26T03:23:22.172Z,13.48
2022-07-26T03:26:07.082Z,11.65
2022-07-26T03:28:51.986Z,14.85
2022-07-26T03:31:37.052Z,18.40
2022-07-26T03:34:22.322Z,15.45
2022-07-26T03:37:07.247Z,10.50
2022-07-26T03:39:52.716Z,8.88
2022-07-26T03:42:37.672Z,12.20
2022-07-26T03:45:22.954Z,15.85
2022-07-26T03:48:07.670Z,15.80
2022-07-26T03:50:52.671Z,13.35
2022-07-26T03:53:37.616Z,13.23
2022-07-26T03:56:23.577Z,12.73
2022-07-26T03:59:10.576Z,13.50
2022-07-26T04:01:55.467Z,14.63
2022-07-26T04:04:40.797Z,13.77
2022-07-26T04:07:27.179Z,16.58
2022-07-26T04:10:13.447Z,13.68
2022-07-26T04:12:58.444Z,11.98
2022-07-26T04:15:43.276Z,15.30
2022-07-26T04:18:28.411Z,12.43
2022-07-26T04:21:13.359Z,14.82
2022-07-26T04:23:58.888Z,16.13
2022-07-26T04:26:44.152Z,16.08
2022-07-26T04:29:28.972Z,13.77
2022-07-26T04:32:13.889Z,15.65
2022-07-26T04:34:58.590Z,17.70
2022-07-26T04:37:44.988Z,15.00
2022-07-26T04:40:30.808Z,15.40
2022-07-26T04:43:16.278Z,17.00
2022-07-26T04:46:01.643Z,15.48
2022-07-26T04:48:46.810Z,13.38
2022-07-26T04:51:32.189Z,15.88
2022-07-26T04:54:17.305Z,16.13
2022-07-26T04:57:02.345Z,16.38
2022-07-26T04:59:58.122Z,16.48
2022-07-26T05:02:55.123Z,16.23
2022-07-26T05:05:40.359Z,16.00
2022-07-26T05:08:25.393Z,18.98
2022-07-26T05:11:10.496Z,19.48
2022-07-26T05:13:55.604Z,16.15
2022-07-26T05:16:44.352Z,17.08
2022-07-26T05:19:30.333Z,17.45
2022-07-26T05:22:15.941Z,17.65
2022-07-26T05:25:00.817Z,16.95
2022-07-26T05:27:45.642Z,16.58
2022-07-26T05:30:30.608Z,19.52
2022-07-26T05:33:16.577Z,21.88
2022-07-26T05:36:01.969Z,17.83
2022-07-26T05:38:46.695Z,16.23
2022-07-26T05:41:31.845Z,16.48
2022-07-26T05:44:16.704Z,17.08
2022-07-26T05:47:03.727Z,18.70
2022-07-26T05:49:48.970Z,18.63
2022-07-26T05:52:33.896Z,16.50
2022-07-26T05:55:18.916Z,16.27
2022-07-26T05:58:03.870Z,20.92
2022-07-26T06:00:48.744Z,19.75
2022-07-26T06:03:34.011Z,21.55
2022-07-26T06:06:19.032Z,19.52
2022-07-26T06:09:04.092Z,18.13
2022-07-26T06:11:49.136Z,20.35
2022-07-26T06:14:34.445Z,23.15
2022-07-26T06:17:19.459Z,17.02
2022-07-26T06:20:04.997Z,17.80
2022-07-26T06:22:49.849Z,20.50
2022-07-26T06:25:35.284Z,18.83
2022-07-26T06:28:20.420Z,20.40
2022-07-26T06:31:05.782Z,24.17
2022-07-26T06:33:50.685Z,21.23
2022-07-26T06:36:35.488Z,17.88
2022-07-26T06:39:20.527Z,17.02
2022-07-26T06:42:05.594Z,16.88
2022-07-26T06:44:50.517Z,20.23
2022-07-26T06:47:35.339Z,19.13
2022-07-26T06:50:25.521Z,21.83
2022-07-26T06:53:11.255Z,19.05
2022-07-26T06:55:56.123Z,19.33
2022-07-26T06:58:42.304Z,17.42
2022-07-26T07:01:58.138Z,16.80
2022-07-26T07:04:33.392Z,16.38
2022-07-26T07:07:18.627Z,15.35
2022-07-26T07:10:05.011Z,16.27
2022-07-26T07:12:51.261Z,14.75
2022-07-26T07:15:36.234Z,13.93
2022-07-26T07:18:21.358Z,14.30
2022-07-26T07:21:06.889Z,14.73
2022-07-26T07:23:52.123Z,13.80
2022-07-26T07:26:37.389Z,16.55
2022-07-26T07:29:22.297Z,15.52
2022-07-26T07:32:07.639Z,14.85
2022-07-26T07:35:01.000Z,13.90
2022-07-26T07:37:53.539Z,15.57
2022-07-26T07:40:39.167Z,16.38
2022-07-26T07:43:24.140Z,18.92
2022-07-26T07:46:08.847Z,15.63
2022-07-26T07:48:53.757Z,15.68
2022-07-26T07:51:39.015Z,15.10
2022-07-26T07:54:23.798Z,15.25
2022-07-26T07:57:10.271Z,12.75
2022-07-26T07:59:56.086Z,15.27
2022-07-26T08:02:41.139Z,15.70
2022-07-26T08:05:26.676Z,14.10
2022-07-26T08:08:11.844Z,17.42
2022-07-26T08:10:59.343Z,17.23
2022-07-26T08:13:47.724Z,13.52
2022-07-26T08:16:33.415Z,16.08
2022-07-26T08:19:18.386Z,17.45
2022-07-26T08:22:04.829Z,15.35
2022-07-26T08:24:50.575Z,12.73
2022-07-26T08:27:40.912Z,15.32
2022-07-26T08:30:26.261Z,15.32
2022-07-26T08:33:11.144Z,16.48
2022-07-26T08:35:58.621Z,16.20
2022-07-26T08:38:44.893Z,13.23
2022-07-26T08:41:32.843Z,10.77
2022-07-26T08:44:17.834Z,15.27
2022-07-26T08:47:03.296Z,14.65
2022-07-26T08:49:48.389Z,12.43
2022-07-26T08:52:33.462Z,10.60
2022-07-26T08:55:20.658Z,12.90
2022-07-26T08:58:05.787Z,15.68
2022-07-26T09:01:11.217Z,13.60
2022-07-26T09:03:56.320Z,34.88
2022-07-26T09:06:57.477Z,11.57
2022-07-26T09:09:54.533Z,12.68
2022-07-26T09:12:40.512Z,14.52
2022-07-26T09:15:27.791Z,11.95
2022-07-26T09:18:27.703Z,12.00
2022-07-26T09:21:33.344Z,11.50
2022-07-26T09:24:32.388Z,10.80
2022-07-26T09:27:18.392Z,13.45
2022-07-26T09:30:08.609Z,11.65
2022-07-26T09:32:59.644Z,10.45
2022-07-26T09:36:04.813Z,7.57
2022-07-26T09:38:56.061Z,9.05
2022-07-26T09:41:41.226Z,9.40
2022-07-26T09:44:26.401Z,8.88
2022-07-26T09:47:11.512Z,5.47
2022-07-26T09:50:15.333Z,6.85
2022-07-26T09:53:00.635Z,11.02
2022-07-26T09:55:45.468Z,12.63
2022-07-26T09:58:31.387Z,11.27
2022-07-26T10:01:16.542Z,13.73
2022-07-26T10:04:03.605Z,14.35
2022-07-26T10:06:49.140Z,12.68
2022-07-26T10:09:55.144Z,13.52
2022-07-26T10:12:40.637Z,10.40
2022-07-26T10:15:36.574Z,8.73
2022-07-26T10:18:36.943Z,12.95
2022-07-26T10:21:31.706Z,10.95
2022-07-26T10:24:26.257Z,9.65
2022-07-26T10:27:37.019Z,11.10
2022-07-26T10:30:33.592Z,10.68
2022-07-26T10:33:24.297Z,10.95
2022-07-26T10:36:30.806Z,12.07
2022-07-26T10:39:16.127Z,14.07
2022-07-26T10:42:07.650Z,9.90
2022-07-26T10:45:19.566Z,8.63
2022-07-26T10:48:21.562Z,10.57
2022-07-26T10:51:25.036Z,10.05
2022-07-26T10:54:12.775Z,12.95
2022-07-26T10:56:58.213Z,11.40
2022-07-26T10:59:55.840Z,9.73
2022-07-26T11:02:42.016Z,12.50
2022-07-26T11:05:32.514Z,7.72
2022-07-26T11:08:17.765Z,11.82
2022-07-26T11:11:02.510Z,8.40
2022-07-26T11:13:47.511Z,14.63
2022-07-26T11:16:38.441Z,6.90
2022-07-26T11:19:24.281Z,5.70
2022-07-26T11:22:09.496Z,6.80
2022-07-26T11:24:56.443Z,7.75
2022-07-26T11:28:00.644Z,6.93
2022-07-26T11:30:59.660Z,7.57
2022-07-26T11:33:47.238Z,8.95
2022-07-26T11:36:44.270Z,6.20
2022-07-26T11:39:33.001Z,8.57
2022-07-26T11:42:19.500Z,5.88
2022-07-26T11:45:09.272Z,4.97
2022-07-26T11:47:57.837Z,6.72
2022-07-26T11:50:42.822Z,7.75
2022-07-26T11:53:28.113Z,6.90
2022-07-26T11:56:15.672Z,11.43
2022-07-26T11:59:01.161Z,11.55
2022-07-26T12:01:49.863Z,13.23
2022-07-26T12:04:37.878Z,7.60
2022-07-26T12:07:23.161Z,7.00
2022-07-26T12:10:08.156Z,8.48
2022-07-26T12:13:15.387Z,10.88
2022-07-26T12:16:00.638Z,10.77
2022-07-26T12:18:51.216Z,8.57
2022-07-26T12:22:07.913Z,9.60
2022-07-26T12:24:58.273Z,10.77
2022-07-26T12:27:46.511Z,11.23
2022-07-26T12:30:35.562Z,6.45
2022-07-26T12:33:20.853Z,9.88
2022-07-26T12:36:28.490Z,10.73
2022-07-26T12:39:21.449Z,6.15
2022-07-26T12:42:33.324Z,6.65
2022-07-26T12:45:21.855Z,6.05
2022-07-26T12:48:08.833Z,5.82
2022-07-26T12:50:53.986Z,8.20
2022-07-26T12:53:38.815Z,8.00
2022-07-26T12:56:23.680Z,6.70
2022-07-26T12:59:08.499Z,8.20
2022-07-26T13:01:53.430Z,6.78
2022-07-26T13:04:39.033Z,10.50
2022-07-26T13:07:24.115Z,9.20
2022-07-26T13:13:14.823Z,6.78
2022-07-26T13:15:59.898Z,10.05
2022-07-26T13:18:44.796Z,6.70
2022-07-26T13:21:33.427Z,7.97
2022-07-26T13:24:18.831Z,8.98
2022-07-26T13:27:06.824Z,6.38
2022-07-26T13:29:51.505Z,8.15
2022-07-26T13:32:36.501Z,7.95
2022-07-26T13:35:21.348Z,7.00
2022-07-26T13:38:06.230Z,6.13
2022-07-26T13:40:54.223Z,14.02
2022-07-26T13:43:39.650Z,21.55
2022-07-26T13:46:26.433Z,10.63
2022-07-26T13:49:13.452Z,8.77
2022-07-26T13:51:58.672Z,17.58
2022-07-26T13:54:43.767Z,7.93
2022-07-26T13:57:49.098Z,12.35
2022-07-26T14:00:33.755Z,10.93
2022-07-26T14:03:19.376Z,11.45
2022-07-26T14:06:04.598Z,8.68
2022-07-26T14:08:49.581Z,10.13
2022-07-26T14:11:35.156Z,9.77
2022-07-26T14:14:20.786Z,8.73
2022-07-26T14:17:05.809Z,8.55
2022-07-26T14:19:51.130Z,12.10
2022-07-26T14:22:36.670Z,12.80
2022-07-26T14:25:26.858Z,11.77
2022-07-26T14:28:11.975Z,8.02
2022-07-26T14:30:57.175Z,12.02
2022-07-26T14:33:42.074Z,11.18
2022-07-26T14:36:27.218Z,6.85
2022-07-26T14:39:12.129Z,9.88
2022-07-26T14:41:57.924Z,10.27
2022-07-26T14:44:44.509Z,8.57
2022-07-26T14:47:29.597Z,11.00
2022-07-26T14:50:14.981Z,7.82
2022-07-26T14:52:59.976Z,7.82
2022-07-26T14:55:44.826Z,8.40
2022-07-26T14:58:29.647Z,8.52
2022-07-26T15:01:14.601Z,8.27
2022-07-26T15:03:59.922Z,8.57
2022-07-26T15:06:45.381Z,6.68
2022-07-26T15:09:30.347Z,8.73
2022-07-26T15:12:15.264Z,8.40
2022-07-26T15:15:00.108Z,8.65
2022-07-26T15:17:45.070Z,11.90
2022-07-26T15:20:29.872Z,11.65
2022-07-26T15:23:14.819Z,11.38
2022-07-26T15:25:59.786Z,7.70
2022-07-26T15:28:44.642Z,9.48
2022-07-26T15:31:37.223Z,9.88
2022-07-26T15:34:22.974Z,6.68
2022-07-26T15:37:07.950Z,9.73
2022-07-26T15:39:53.059Z,9.10
2022-07-26T15:42:43.408Z,8.68
2022-07-26T15:45:30.108Z,12.13
2022-07-26T15:48:22.391Z,14.20
2022-07-26T15:51:07.691Z,11.63
2022-07-26T15:53:53.954Z,10.23
2022-07-26T15:56:39.160Z,9.32
2022-07-26T15:59:24.057Z,9.10
2022-07-26T16:02:09.524Z,9.63
2022-07-26T16:04:55.038Z,9.38
2022-07-26T16:07:40.969Z,9.93
2022-07-26T16:10:25.894Z,9.98
2022-07-26T16:13:11.229Z,11.77
2022-07-26T16:15:56.105Z,11.38
2022-07-26T16:18:41.929Z,9.10
2022-07-26T16:21:27.268Z,6.47
2022-07-26T16:24:12.218Z,6.22
2022-07-26T16:26:57.421Z,6.30
2022-07-26T16:29:42.601Z,9.90
2022-07-26T16:32:27.602Z,9.95
2022-07-26T16:35:13.156Z,7.53
2022-07-26T16:37:58.289Z,13.30
2022-07-26T16:40:43.565Z,8.60
2022-07-26T16:43:28.747Z,8.68
2022-07-26T16:46:14.192Z,11.32
2022-07-26T16:48:59.598Z,6.72
2022-07-26T16:51:45.104Z,10.60
2022-07-26T16:54:30.067Z,10.13
2022-07-26T16:57:15.246Z,10.23
2022-07-26T17:00:00.604Z,9.48
2022-07-26T17:02:45.611Z,10.15
2022-07-26T17:05:30.895Z,7.72
2022-07-26T17:08:16.130Z,8.88
2022-07-26T17:11:01.558Z,11.00
2022-07-26T17:13:46.726Z,7.75
2022-07-26T17:16:31.924Z,12.32
2022-07-26T17:19:16.842Z,9.25
2022-07-26T17:22:02.287Z,15.93
2022-07-26T17:24:48.477Z,14.32
2022-07-26T17:27:33.768Z,18.50
2022-07-26T17:30:18.828Z,10.60
2022-07-26T17:33:03.891Z,10.25
2022-07-26T17:35:49.024Z,6.03
2022-07-26T17:38:34.421Z,9.48
2022-07-26T17:41:19.567Z,8.95
2022-07-26T17:44:05.249Z,9.20
2022-07-26T17:46:50.829Z,10.45
2022-07-26T17:49:35.961Z,11.32
2022-07-26T17:52:21.339Z,10.27
2022-07-26T17:55:07.084Z,11.98
2022-07-26T17:57:52.385Z,8.93
2022-07-26T18:00:37.766Z,9.82
2022-07-26T18:03:23.035Z,6.72
2022-07-26T18:06:08.780Z,11.80
2022-07-26T18:08:53.916Z,10.60
2022-07-26T18:11:39.782Z,8.43
2022-07-26T18:14:25.195Z,8.70
2022-07-26T18:17:10.627Z,11.07
2022-07-26T18:19:55.476Z,9.82
2022-07-26T18:22:40.906Z,8.02
2022-07-26T18:25:26.295Z,11.45
2022-07-26T18:28:11.383Z,11.27
2022-07-26T18:30:56.505Z,11.60
2022-07-26T18:33:41.706Z,12.82
2022-07-26T18:36:26.740Z,11.65
2022-07-26T18:39:12.591Z,12.50
2022-07-26T18:41:58.056Z,13.88
2022-07-26T18:44:43.369Z,14.43
2022-07-26T18:47:28.787Z,16.52
2022-07-26T18:50:16.982Z,13.82
2022-07-26T18:53:02.352Z,12.77
2022-07-26T18:55:47.590Z,13.23
2022-07-26T18:58:32.845Z,13.00
2022-07-26T19:01:17.900Z,13.82
2022-07-26T19:04:06.859Z,12.35
2022-07-26T19:06:52.926Z,13.52
2022-07-26T19:09:38.031Z,14.45
2022-07-26T19:12:23.510Z,12.65
2022-07-26T19:15:09.114Z,17.23
2022-07-26T19:17:54.244Z,15.80
2022-07-26T19:20:39.582Z,15.57
2022-07-26T19:23:25.191Z,14.32
2022-07-26T19:26:11.076Z,14.82
2022-07-26T19:28:55.854Z,16.65
2022-07-26T19:31:41.451Z,17.67
2022-07-26T19:34:26.727Z,21.63
2022-07-26T19:37:12.139Z,20.92
2022-07-26T19:39:57.145Z,17.13
2022-07-26T19:42:42.570Z,24.95
2022-07-26T19:45:27.984Z,19.40
2022-07-26T19:48:13.369Z,32.40
2022-07-26T19:50:58.813Z,21.17
2022-07-26T19:53:44.199Z,20.00
2022-07-26T19:56:29.636Z,30.90
2022-07-26T19:59:19.487Z,18.40
2022-07-26T20:02:08.050Z,21.27
2022-07-26T20:04:53.480Z,18.77
2022-07-26T20:07:38.816Z,17.90
2022-07-26T20:10:27.304Z,16.95
2022-07-26T20:13:15.018Z,14.93
2022-07-26T20:16:00.456Z,13.52
2022-07-26T20:18:46.063Z,14.82
2022-07-26T20:21:31.286Z,16.33
2022-07-26T20:24:16.235Z,15.27
2022-07-26T20:27:01.562Z,12.65
2022-07-26T20:29:47.061Z,13.38
2022-07-26T20:32:32.511Z,13.35
2022-07-26T20:35:17.600Z,22.92
2022-07-26T20:38:02.569Z,20.85
2022-07-26T20:40:47.767Z,14.23
2022-07-26T20:43:33.231Z,21.23
2022-07-26T20:46:19.718Z,23.13
2022-07-26T20:49:06.300Z,20.85
2022-07-26T20:51:51.315Z,14.20
2022-07-26T20:54:36.763Z,15.38
2022-07-26T20:57:21.600Z,18.92
2022-07-26T21:00:09.304Z,13.90
2022-07-26T21:02:54.178Z,14.55
2022-07-26T21:05:39.594Z,13.88
2022-07-26T21:08:24.900Z,16.00
2022-07-26T21:11:09.800Z,17.80
2022-07-26T21:13:55.097Z,11.00
2022-07-26T21:16:40.647Z,12.80
2022-07-26T21:19:26.065Z,15.43
2022-07-26T21:22:11.553Z,17.23
2022-07-26T21:24:56.769Z,16.30
2022-07-26T21:27:42.250Z,11.73
2022-07-26T21:30:27.791Z,13.63
2022-07-26T21:33:13.601Z,11.20
2022-07-26T21:35:58.690Z,13.27
2022-07-26T21:38:44.266Z,11.13
2022-07-26T21:41:29.397Z,11.93
2022-07-26T21:44:15.924Z,10.82
2022-07-26T21:47:29.900Z,17.67
2022-07-26T21:50:17.771Z,12.88
2022-07-26T21:53:03.329Z,10.65
2022-07-26T21:55:48.617Z,8.32
2022-07-26T21:58:36.556Z,12.35
2022-07-26T22:01:22.052Z,10.77
2022-07-26T22:04:07.410Z,11.68
2022-07-26T22:06:52.570Z,15.25
2022-07-26T22:09:38.523Z,11.25
2022-07-26T22:12:23.834Z,9.70
2022-07-26T22:15:09.706Z,13.93
2022-07-26T22:17:55.100Z,10.55
2022-07-26T22:20:41.317Z,13.93
2022-07-26T22:23:27.123Z,14.98
2022-07-26T22:26:14.396Z,10.88
2022-07-26T22:28:59.698Z,10.68
2022-07-26T22:31:44.673Z,13.88
2022-07-26T22:34:30.025Z,11.13
2022-07-26T22:37:15.405Z,8.25
2022-07-26T22:40:00.507Z,11.43
2022-07-26T22:42:45.595Z,11.75
2022-07-26T22:45:31.719Z,11.95
2022-07-26T22:48:17.029Z,12.80
2022-07-26T22:51:07.600Z,11.85
2022-07-26T22:53:52.869Z,11.50
2022-07-26T22:56:39.654Z,13.10
2022-07-26T22:59:24.785Z,9.25
2022-07-26T23:02:10.203Z,10.18
2022-07-26T23:04:55.680Z,12.48
2022-07-26T23:07:42.612Z,11.05
2022-07-26T23:10:31.177Z,9.85
2022-07-26T23:13:16.579Z,12.27
2022-07-26T23:16:02.263Z,10.90
2022-07-26T23:18:47.203Z,10.48
2022-07-26T23:21:32.494Z,10.70
2022-07-26T23:24:17.931Z,11.38
2022-07-26T23:27:04.122Z,9.93
2022-07-26T23:29:49.210Z,9.82
2022-07-26T23:32:34.695Z,11.90
2022-07-26T23:35:19.575Z,10.52
2022-07-26T23:38:04.860Z,13.77
2022-07-26T23:40:50.146Z,12.38
2022-07-26T23:43:35.457Z,8.85
2022-07-26T23:46:21.619Z,11.63
2022-07-26T23:49:06.576Z,14.32
2022-07-26T23:51:52.270Z,12.63
2022-07-26T23:54:37.396Z,12.60
2022-07-26T23:57:22.877Z,10.35
